sensor_id;sensor_type;location;lat;lon;timestamp;P1;durP1;ratioP1;P2;durP2;ratioP2
13816;SDS011;6979;52.116;5.286;2022-11-11T00:02:32;11.00;;;8.57;;
13816;SDS011;6979;52.116;5.286;2022-11-11T00:05:17;8.80;;;7.80;;
13816;SDS011;6979;52.116;5.286;2022-11-11T00:08:04;11.83;;;8.23;;
13816;SDS011;6979;52.116;5.286;2022-11-11T00:10:49;9.37;;;8.57;;
13816;SDS011;6979;52.116;5.286;2022-11-11T00:13:35;10.57;;;9.57;;
13816;SDS011;6979;52.116;5.286;2022-11-11T00:16:21;8.80;;;7.90;;
13816;SDS011;6979;52.116;5.286;2022-11-11T00:19:09;10.80;;;8.17;;
13816;SDS011;6979;52.116;5.286;2022-11-11T00:22:17;10.43;;;9.43;;
13816;SDS011;6979;52.116;5.286;2022-11-11T00:25:22;8.60;;;7.80;;
13816;SDS011;6979;52.116;5.286;2022-11-11T00:28:07;9.97;;;8.93;;
13816;SDS011;6979;52.116;5.286;2022-11-11T00:30:59;11.47;;;10.27;;
13816;SDS011;6979;52.116;5.286;2022-11-11T00:33:45;9.30;;;8.30;;
13816;SDS011;6979;52.116;5.286;2022-11-11T00:36:32;11.80;;;10.70;;
13816;SDS011;6979;52.116;5.286;2022-11-11T00:39:17;11.27;;;9.63;;
13816;SDS011;6979;52.116;5.286;2022-11-11T00:42:02;12.10;;;10.30;;
13816;SDS011;6979;52.116;5.286;2022-11-11T00:44:48;13.30;;;11.87;;
13816;SDS011;6979;52.116;5.286;2022-11-11T00:47:33;11.63;;;10.53;;
13816;SDS011;6979;52.116;5.286;2022-11-11T00:50:37;12.97;;;10.87;;
13816;SDS011;6979;52.116;5.286;2022-11-11T00:53:41;14.67;;;12.57;;
13816;SDS011;6979;52.116;5.286;2022-11-11T00:56:27;14.50;;;13.00;;
13816;SDS011;6979;52.116;5.286;2022-11-11T00:59:13;12.10;;;11.03;;
13816;SDS011;6979;52.116;5.286;2022-11-11T01:01:58;14.37;;;12.90;;
13816;SDS011;6979;52.116;5.286;2022-11-11T01:04:44;14.53;;;13.03;;
13816;SDS011;6979;52.116;5.286;2022-11-11T01:07:29;14.60;;;13.07;;
13816;SDS011;6979;52.116;5.286;2022-11-11T01:10:16;16.53;;;15.03;;
13816;SDS011;6979;52.116;5.286;2022-11-11T01:13:21;14.67;;;13.27;;
13816;SDS011;6979;52.116;5.286;2022-11-11T01:16:10;14.97;;;13.57;;
13816;SDS011;6979;52.116;5.286;2022-11-11T01:18:57;15.60;;;14.10;;
13816;SDS011;6979;52.116;5.286;2022-11-11T01:21:42;15.57;;;13.17;;
13816;SDS011;6979;52.116;5.286;2022-11-11T01:24:28;17.17;;;13.80;;
13816;SDS011;6979;52.116;5.286;2022-11-11T01:27:15;17.13;;;15.47;;
13816;SDS011;6979;52.116;5.286;2022-11-11T01:30:00;15.13;;;13.60;;
13816;SDS011;6979;52.116;5.286;2022-11-11T01:32:46;15.13;;;13.83;;
13816;SDS011;6979;52.116;5.286;2022-11-11T01:35:31;21.53;;;17.90;;
13816;SDS011;6979;52.116;5.286;2022-11-11T01:38:21;17.93;;;16.07;;
13816;SDS011;6979;52.116;5.286;2022-11-11T01:41:07;17.00;;;15.40;;
13816;SDS011;6979;52.116;5.286;2022-11-11T01:47:29;17.77;;;15.97;;
13816;SDS011;6979;52.116;5.286;2022-11-11T01:50:35;18.30;;;16.43;;
13816;SDS011;6979;52.116;5.286;2022-11-11T01:53:20;20.33;;;18.33;;
13816;SDS011;6979;52.116;5.286;2022-11-11T01:56:05;18.50;;;16.60;;
13816;SDS011;6979;52.116;5.286;2022-11-11T01:58:54;20.27;;;18.27;;
13816;SDS011;6979;52.116;5.286;2022-11-11T02:01:45;21.93;;;19.73;;
13816;SDS011;6979;52.116;5.286;2022-11-11T02:04:32;21.47;;;19.37;;
13816;SDS011;6979;52.116;5.286;2022-11-11T02:07:50;22.77;;;20.63;;
13816;SDS011;6979;52.116;5.286;2022-11-11T02:10:35;18.83;;;17.03;;
13816;SDS011;6979;52.116;5.286;2022-11-11T02:13:23;20.83;;;18.77;;
13816;SDS011;6979;52.116;5.286;2022-11-11T02:16:27;20.40;;;18.37;;
13816;SDS011;6979;52.116;5.286;2022-11-11T02:19:14;20.47;;;18.30;;
13816;SDS011;6979;52.116;5.286;2022-11-11T02:22:05;20.93;;;18.87;;
13816;SDS011;6979;52.116;5.286;2022-11-11T02:24:56;19.47;;;17.57;;
13816;SDS011;6979;52.116;5.286;2022-11-11T02:27:42;21.27;;;19.27;;
13816;SDS011;6979;52.116;5.286;2022-11-11T02:30:32;20.83;;;18.73;;
13816;SDS011;6979;52.116;5.286;2022-11-11T02:33:17;20.27;;;18.27;;
13816;SDS011;6979;52.116;5.286;2022-11-11T02:36:03;22.73;;;20.50;;
13816;SDS011;6979;52.116;5.286;2022-11-11T02:38:49;21.37;;;19.37;;
13816;SDS011;6979;52.116;5.286;2022-11-11T02:41:36;20.73;;;18.67;;
13816;SDS011;6979;52.116;5.286;2022-11-11T02:44:39;19.40;;;16.83;;
13816;SDS011;6979;52.116;5.286;2022-11-11T02:47:25;20.73;;;17.67;;
13816;SDS011;6979;52.116;5.286;2022-11-11T02:50:10;20.33;;;17.93;;
13816;SDS011;6979;52.116;5.286;2022-11-11T02:52:56;21.27;;;18.63;;
13816;SDS011;6979;52.116;5.286;2022-11-11T02:55:41;23.10;;;18.70;;
13816;SDS011;6979;52.116;5.286;2022-11-11T02:58:28;17.37;;;15.63;;
13816;SDS011;6979;52.116;5.286;2022-11-11T03:01:14;18.90;;;16.90;;
13816;SDS011;6979;52.116;5.286;2022-11-11T03:04:02;17.53;;;15.93;;
13816;SDS011;6979;52.116;5.286;2022-11-11T03:06:48;18.03;;;16.23;;
13816;SDS011;6979;52.116;5.286;2022-11-11T03:09:34;20.93;;;18.30;;
13816;SDS011;6979;52.116;5.286;2022-11-11T03:12:19;19.73;;;17.73;;
13816;SDS011;6979;52.116;5.286;2022-11-11T03:15:06;18.40;;;16.70;;
13816;SDS011;6979;52.116;5.286;2022-11-11T03:17:52;18.67;;;16.80;;
13816;SDS011;6979;52.116;5.286;2022-11-11T03:20:36;19.63;;;15.93;;
13816;SDS011;6979;52.116;5.286;2022-11-11T03:23:39;17.57;;;15.77;;
13816;SDS011;6979;52.116;5.286;2022-11-11T03:26:24;19.57;;;17.67;;
13816;SDS011;6979;52.116;5.286;2022-11-11T03:29:10;18.33;;;16.70;;
13816;SDS011;6979;52.116;5.286;2022-11-11T03:31:57;20.23;;;18.13;;
13816;SDS011;6979;52.116;5.286;2022-11-11T03:34:42;19.13;;;17.17;;
13816;SDS011;6979;52.116;5.286;2022-11-11T03:37:28;16.80;;;15.17;;
13816;SDS011;6979;52.116;5.286;2022-11-11T03:40:31;20.37;;;18.20;;
13816;SDS011;6979;52.116;5.286;2022-11-11T03:43:17;21.10;;;18.83;;
13816;SDS011;6979;52.116;5.286;2022-11-11T03:46:04;18.37;;;16.63;;
13816;SDS011;6979;52.116;5.286;2022-11-11T03:48:50;19.30;;;17.40;;
13816;SDS011;6979;52.116;5.286;2022-11-11T03:51:36;17.03;;;15.37;;
13816;SDS011;6979;52.116;5.286;2022-11-11T03:54:21;17.40;;;15.77;;
13816;SDS011;6979;52.116;5.286;2022-11-11T03:57:07;15.50;;;13.87;;
13816;SDS011;6979;52.116;5.286;2022-11-11T04:00:10;17.77;;;16.17;;
13816;SDS011;6979;52.116;5.286;2022-11-11T04:03:00;18.50;;;16.77;;
13816;SDS011;6979;52.116;5.286;2022-11-11T04:06:06;19.00;;;17.10;;
13816;SDS011;6979;52.116;5.286;2022-11-11T04:09:11;16.43;;;14.80;;
13816;SDS011;6979;52.116;5.286;2022-11-11T04:12:15;17.57;;;15.83;;
13816;SDS011;6979;52.116;5.286;2022-11-11T04:15:00;16.30;;;14.70;;
13816;SDS011;6979;52.116;5.286;2022-11-11T04:18:03;17.37;;;15.67;;
13816;SDS011;6979;52.116;5.286;2022-11-11T04:20:48;18.73;;;16.77;;
13816;SDS011;6979;52.116;5.286;2022-11-11T04:23:53;18.17;;;14.73;;
13816;SDS011;6979;52.116;5.286;2022-11-11T04:26:38;17.87;;;15.37;;
13816;SDS011;6979;52.116;5.286;2022-11-11T04:29:23;15.87;;;14.20;;
13816;SDS011;6979;52.116;5.286;2022-11-11T04:32:15;16.47;;;15.07;;
13816;SDS011;6979;52.116;5.286;2022-11-11T04:35:21;17.30;;;15.50;;
13816;SDS011;6979;52.116;5.286;2022-11-11T04:38:07;15.77;;;14.30;;
13816;SDS011;6979;52.116;5.286;2022-11-11T04:41:11;15.33;;;13.77;;
13816;SDS011;6979;52.116;5.286;2022-11-11T04:43:57;16.40;;;14.90;;
13816;SDS011;6979;52.116;5.286;2022-11-11T04:46:59;15.70;;;13.97;;
13816;SDS011;6979;52.116;5.286;2022-11-11T04:49:45;17.30;;;15.37;;
13816;SDS011;6979;52.116;5.286;2022-11-11T04:52:30;16.93;;;15.23;;
13816;SDS011;6979;52.116;5.286;2022-11-11T04:55:16;16.03;;;13.70;;
13816;SDS011;6979;52.116;5.286;2022-11-11T04:58:21;15.87;;;14.27;;
13816;SDS011;6979;52.116;5.286;2022-11-11T05:01:07;16.63;;;14.27;;
13816;SDS011;6979;52.116;5.286;2022-11-11T05:03:53;14.67;;;13.17;;
13816;SDS011;6979;52.116;5.286;2022-11-11T05:06:37;13.73;;;12.33;;
13816;SDS011;6979;52.116;5.286;2022-11-11T05:09:40;14.40;;;12.10;;
13816;SDS011;6979;52.116;5.286;2022-11-11T05:12:26;15.07;;;13.23;;
13816;SDS011;6979;52.116;5.286;2022-11-11T05:15:13;13.80;;;12.50;;
13816;SDS011;6979;52.116;5.286;2022-11-11T05:18:16;15.47;;;14.00;;
13816;SDS011;6979;52.116;5.286;2022-11-11T05:21:20;11.73;;;10.53;;
13816;SDS011;6979;52.116;5.286;2022-11-11T05:24:09;14.17;;;12.67;;
13816;SDS011;6979;52.116;5.286;2022-11-11T05:27:17;13.13;;;11.90;;
13816;SDS011;6979;52.116;5.286;2022-11-11T05:30:04;13.17;;;11.93;;
13816;SDS011;6979;52.116;5.286;2022-11-11T05:32:54;14.83;;;12.13;;
13816;SDS011;6979;52.116;5.286;2022-11-11T05:35:39;11.03;;;10.03;;
13816;SDS011;6979;52.116;5.286;2022-11-11T05:38:25;14.77;;;13.23;;
13816;SDS011;6979;52.116;5.286;2022-11-11T05:41:10;14.37;;;12.97;;
13816;SDS011;6979;52.116;5.286;2022-11-11T05:43:56;13.57;;;12.17;;
13816;SDS011;6979;52.116;5.286;2022-11-11T05:46:41;14.17;;;12.47;;
13816;SDS011;6979;52.116;5.286;2022-11-11T05:49:28;15.20;;;11.97;;
13816;SDS011;6979;52.116;5.286;2022-11-11T05:52:14;12.17;;;11.03;;
13816;SDS011;6979;52.116;5.286;2022-11-11T05:55:00;12.50;;;11.20;;
13816;SDS011;6979;52.116;5.286;2022-11-11T05:57:46;12.40;;;10.87;;
13816;SDS011;6979;52.116;5.286;2022-11-11T06:00:31;13.10;;;11.77;;
13816;SDS011;6979;52.116;5.286;2022-11-11T06:03:17;14.93;;;12.40;;
13816;SDS011;6979;52.116;5.286;2022-11-11T06:06:04;12.63;;;11.43;;
13816;SDS011;6979;52.116;5.286;2022-11-11T06:08:49;11.87;;;10.40;;
13816;SDS011;6979;52.116;5.286;2022-11-11T06:11:34;13.53;;;12.03;;
13816;SDS011;6979;52.116;5.286;2022-11-11T06:14:20;11.57;;;10.37;;
13816;SDS011;6979;52.116;5.286;2022-11-11T06:17:05;12.50;;;11.03;;
13816;SDS011;6979;52.116;5.286;2022-11-11T06:19:51;10.53;;;9.53;;
13816;SDS011;6979;52.116;5.286;2022-11-11T06:22:38;12.67;;;11.47;;
13816;SDS011;6979;52.116;5.286;2022-11-11T06:25:41;13.73;;;12.43;;
13816;SDS011;6979;52.116;5.286;2022-11-11T06:28:45;14.23;;;12.13;;
13816;SDS011;6979;52.116;5.286;2022-11-11T06:31:32;12.77;;;11.57;;
13816;SDS011;6979;52.116;5.286;2022-11-11T06:34:17;14.57;;;13.10;;
13816;SDS011;6979;52.116;5.286;2022-11-11T06:37:03;13.23;;;11.93;;
13816;SDS011;6979;52.116;5.286;2022-11-11T06:39:50;15.80;;;14.33;;
13816;SDS011;6979;52.116;5.286;2022-11-11T06:42:35;16.47;;;11.80;;
13816;SDS011;6979;52.116;5.286;2022-11-11T06:45:21;14.33;;;13.03;;
13816;SDS011;6979;52.116;5.286;2022-11-11T06:48:06;14.03;;;12.57;;
13816;SDS011;6979;52.116;5.286;2022-11-11T06:50:52;13.40;;;12.03;;
13816;SDS011;6979;52.116;5.286;2022-11-11T06:53:38;14.10;;;12.13;;
13816;SDS011;6979;52.116;5.286;2022-11-11T06:56:25;14.10;;;12.47;;
13816;SDS011;6979;52.116;5.286;2022-11-11T06:59:10;15.63;;;11.87;;
13816;SDS011;6979;52.116;5.286;2022-11-11T07:01:56;13.13;;;11.90;;
13816;SDS011;6979;52.116;5.286;2022-11-11T07:04:41;14.07;;;12.77;;
13816;SDS011;6979;52.116;5.286;2022-11-11T07:07:27;15.77;;;12.43;;
13816;SDS011;6979;52.116;5.286;2022-11-11T07:10:12;13.43;;;11.97;;
13816;SDS011;6979;52.116;5.286;2022-11-11T07:13:00;13.13;;;11.77;;
13816;SDS011;6979;52.116;5.286;2022-11-11T07:15:46;14.23;;;12.80;;
13816;SDS011;6979;52.116;5.286;2022-11-11T07:18:32;12.73;;;11.53;;
13816;SDS011;6979;52.116;5.286;2022-11-11T07:21:17;13.93;;;12.53;;
13816;SDS011;6979;52.116;5.286;2022-11-11T07:24:03;14.03;;;12.67;;
13816;SDS011;6979;52.116;5.286;2022-11-11T07:26:48;14.80;;;13.30;;
13816;SDS011;6979;52.116;5.286;2022-11-11T07:29:35;14.80;;;13.30;;
13816;SDS011;6979;52.116;5.286;2022-11-11T07:32:20;15.63;;;14.13;;
13816;SDS011;6979;52.116;5.286;2022-11-11T07:35:06;16.67;;;13.50;;
13816;SDS011;6979;52.116;5.286;2022-11-11T07:37:52;16.40;;;14.63;;
13816;SDS011;6979;52.116;5.286;2022-11-11T07:40:38;13.90;;;12.60;;
13816;SDS011;6979;52.116;5.286;2022-11-11T07:43:23;15.47;;;14.00;;
13816;SDS011;6979;52.116;5.286;2022-11-11T07:46:10;14.07;;;12.83;;
13816;SDS011;6979;52.116;5.286;2022-11-11T07:48:55;15.20;;;13.70;;
13816;SDS011;6979;52.116;5.286;2022-11-11T07:51:41;16.33;;;14.73;;
13816;SDS011;6979;52.116;5.286;2022-11-11T07:54:26;15.47;;;13.97;;
13816;SDS011;6979;52.116;5.286;2022-11-11T07:57:12;15.17;;;13.77;;
13816;SDS011;6979;52.116;5.286;2022-11-11T07:59:57;17.53;;;15.27;;
13816;SDS011;6979;52.116;5.286;2022-11-11T08:02:46;17.50;;;15.70;;
13816;SDS011;6979;52.116;5.286;2022-11-11T08:05:32;16.37;;;13.83;;
13816;SDS011;6979;52.116;5.286;2022-11-11T08:08:17;17.90;;;16.00;;
13816;SDS011;6979;52.116;5.286;2022-11-11T08:11:07;17.57;;;15.87;;
13816;SDS011;6979;52.116;5.286;2022-11-11T08:13:53;19.17;;;15.70;;
13816;SDS011;6979;52.116;5.286;2022-11-11T08:16:37;22.57;;;20.27;;
13816;SDS011;6979;52.116;5.286;2022-11-11T08:19:24;18.60;;;16.53;;
13816;SDS011;6979;52.116;5.286;2022-11-11T08:22:10;18.63;;;16.70;;
13816;SDS011;6979;52.116;5.286;2022-11-11T08:24:55;18.77;;;16.90;;
13816;SDS011;6979;52.116;5.286;2022-11-11T08:27:41;17.53;;;15.70;;
13816;SDS011;6979;52.116;5.286;2022-11-11T08:30:27;17.73;;;16.03;;
13816;SDS011;6979;52.116;5.286;2022-11-11T08:33:12;20.93;;;17.27;;
13816;SDS011;6979;52.116;5.286;2022-11-11T08:35:59;19.10;;;15.40;;
13816;SDS011;6979;52.116;5.286;2022-11-11T08:38:45;20.00;;;17.13;;
13816;SDS011;6979;52.116;5.286;2022-11-11T08:41:30;18.40;;;16.50;;
13816;SDS011;6979;52.116;5.286;2022-11-11T08:44:16;21.50;;;19.30;;
13816;SDS011;6979;52.116;5.286;2022-11-11T08:47:01;18.10;;;16.20;;
13816;SDS011;6979;52.116;5.286;2022-11-11T08:49:47;19.47;;;16.27;;
13816;SDS011;6979;52.116;5.286;2022-11-11T08:52:35;17.30;;;15.60;;
13816;SDS011;6979;52.116;5.286;2022-11-11T08:55:20;19.03;;;17.13;;
13816;SDS011;6979;52.116;5.286;2022-11-11T08:58:06;19.27;;;16.93;;
13816;SDS011;6979;52.116;5.286;2022-11-11T09:00:51;17.27;;;15.57;;
13816;SDS011;6979;52.116;5.286;2022-11-11T09:03:36;18.87;;;16.87;;
13816;SDS011;6979;52.116;5.286;2022-11-11T09:06:22;19.97;;;17.77;;
13816;SDS011;6979;52.116;5.286;2022-11-11T09:09:09;17.20;;;15.50;;
13816;SDS011;6979;52.116;5.286;2022-11-11T09:11:54;18.70;;;15.83;;
13816;SDS011;6979;52.116;5.286;2022-11-11T09:14:40;18.07;;;15.40;;
13816;SDS011;6979;52.116;5.286;2022-11-11T09:17:25;19.50;;;17.47;;
13816;SDS011;6979;52.116;5.286;2022-11-11T09:20:11;19.53;;;17.57;;
13816;SDS011;6979;52.116;5.286;2022-11-11T09:22:56;18.57;;;16.77;;
13816;SDS011;6979;52.116;5.286;2022-11-11T09:25:44;18.00;;;16.30;;
13816;SDS011;6979;52.116;5.286;2022-11-11T09:28:29;18.73;;;16.87;;
13816;SDS011;6979;52.116;5.286;2022-11-11T09:31:16;20.20;;;18.30;;
13816;SDS011;6979;52.116;5.286;2022-11-11T09:34:02;15.83;;;14.20;;
13816;SDS011;6979;52.116;5.286;2022-11-11T09:36:49;17.30;;;15.67;;
13816;SDS011;6979;52.116;5.286;2022-11-11T09:39:34;16.30;;;14.80;;
13816;SDS011;6979;52.116;5.286;2022-11-11T09:42:29;17.67;;;15.93;;
13816;SDS011;6979;52.116;5.286;2022-11-11T09:45:20;15.90;;;13.97;;
13816;SDS011;6979;52.116;5.286;2022-11-11T09:51:22;16.60;;;14.90;;
13816;SDS011;6979;52.116;5.286;2022-11-11T09:54:14;15.60;;;14.07;;
13816;SDS011;6979;52.116;5.286;2022-11-11T09:57:04;18.30;;;16.50;;
13816;SDS011;6979;52.116;5.286;2022-11-11T09:59:59;16.63;;;14.80;;
13816;SDS011;6979;52.116;5.286;2022-11-11T10:02:49;16.40;;;14.70;;
13816;SDS011;6979;52.116;5.286;2022-11-11T10:05:37;17.57;;;15.87;;
13816;SDS011;6979;52.116;5.286;2022-11-11T10:08:28;17.63;;;15.83;;
13816;SDS011;6979;52.116;5.286;2022-11-11T10:11:17;17.23;;;15.50;;
13816;SDS011;6979;52.116;5.286;2022-11-11T10:14:09;15.87;;;14.40;;
13816;SDS011;6979;52.116;5.286;2022-11-11T10:16:57;16.50;;;15.07;;
13816;SDS011;6979;52.116;5.286;2022-11-11T10:19:51;19.60;;;17.93;;
13816;SDS011;6979;52.116;5.286;2022-11-11T10:22:44;15.33;;;13.83;;
13816;SDS011;6979;52.116;5.286;2022-11-11T10:25:34;16.47;;;14.87;;
13816;SDS011;6979;52.116;5.286;2022-11-11T10:28:23;15.27;;;13.77;;
13816;SDS011;6979;52.116;5.286;2022-11-11T10:31:12;14.70;;;13.30;;
13816;SDS011;6979;52.116;5.286;2022-11-11T10:34:02;15.37;;;13.87;;
13816;SDS011;6979;52.116;5.286;2022-11-11T10:36:50;16.23;;;14.57;;
13816;SDS011;6979;52.116;5.286;2022-11-11T10:39:41;14.93;;;13.53;;
13816;SDS011;6979;52.116;5.286;2022-11-11T10:42:33;16.97;;;15.47;;
13816;SDS011;6979;52.116;5.286;2022-11-11T10:45:22;15.20;;;13.70;;
13816;SDS011;6979;52.116;5.286;2022-11-11T10:48:13;15.23;;;13.83;;
13816;SDS011;6979;52.116;5.286;2022-11-11T10:51:03;14.90;;;13.70;;
13816;SDS011;6979;52.116;5.286;2022-11-11T10:53:52;16.60;;;15.17;;
13816;SDS011;6979;52.116;5.286;2022-11-11T10:56:42;15.03;;;13.63;;
13816;SDS011;6979;52.116;5.286;2022-11-11T10:59:34;17.07;;;15.53;;
13816;SDS011;6979;52.116;5.286;2022-11-11T11:02:25;17.53;;;15.83;;
13816;SDS011;6979;52.116;5.286;2022-11-11T11:05:16;18.67;;;16.93;;
13816;SDS011;6979;52.116;5.286;2022-11-11T11:08:08;17.17;;;15.60;;
13816;SDS011;6979;52.116;5.286;2022-11-11T11:10:59;17.87;;;16.07;;
13816;SDS011;6979;52.116;5.286;2022-11-11T11:13:49;18.00;;;16.30;;
13816;SDS011;6979;52.116;5.286;2022-11-11T11:16:38;16.17;;;14.87;;
13816;SDS011;6979;52.116;5.286;2022-11-11T11:19:27;15.73;;;14.17;;
13816;SDS011;6979;52.116;5.286;2022-11-11T11:22:13;15.40;;;14.00;;
13816;SDS011;6979;52.116;5.286;2022-11-11T11:25:09;18.37;;;16.67;;
13816;SDS011;6979;52.116;5.286;2022-11-11T11:28:06;17.07;;;15.43;;
13816;SDS011;6979;52.116;5.286;2022-11-11T11:30:57;16.50;;;15.07;;
13816;SDS011;6979;52.116;5.286;2022-11-11T11:33:50;16.77;;;15.17;;
13816;SDS011;6979;52.116;5.286;2022-11-11T11:36:37;16.83;;;15.43;;
13816;SDS011;6979;52.116;5.286;2022-11-11T11:39:30;16.17;;;14.70;;
13816;SDS011;6979;52.116;5.286;2022-11-11T11:42:27;15.80;;;14.40;;
13816;SDS011;6979;52.116;5.286;2022-11-11T11:45:15;17.40;;;15.87;;
13816;SDS011;6979;52.116;5.286;2022-11-11T11:48:08;23.33;;;21.13;;
13816;SDS011;6979;52.116;5.286;2022-11-11T11:51:01;17.53;;;15.90;;
13816;SDS011;6979;52.116;5.286;2022-11-11T11:54:03;17.30;;;15.70;;
13816;SDS011;6979;52.116;5.286;2022-11-11T11:57:02;16.30;;;14.83;;
13816;SDS011;6979;52.116;5.286;2022-11-11T12:00:00;17.20;;;15.57;;
13816;SDS011;6979;52.116;5.286;2022-11-11T12:02:55;16.23;;;14.83;;
13816;SDS011;6979;52.116;5.286;2022-11-11T12:05:53;14.10;;;12.70;;
13816;SDS011;6979;52.116;5.286;2022-11-11T12:08:50;15.03;;;13.73;;
13816;SDS011;6979;52.116;5.286;2022-11-11T12:11:50;15.33;;;13.93;;
13816;SDS011;6979;52.116;5.286;2022-11-11T12:14:47;15.03;;;13.53;;
13816;SDS011;6979;52.116;5.286;2022-11-11T12:17:46;14.33;;;13.13;;
13816;SDS011;6979;52.116;5.286;2022-11-11T12:20:39;14.67;;;13.17;;
13816;SDS011;6979;52.116;5.286;2022-11-11T12:23:36;14.67;;;13.17;;
13816;SDS011;6979;52.116;5.286;2022-11-11T12:26:33;15.03;;;13.63;;
13816;SDS011;6979;52.116;5.286;2022-11-11T12:29:29;11.47;;;10.57;;
13816;SDS011;6979;52.116;5.286;2022-11-11T12:32:29;12.87;;;11.67;;
13816;SDS011;6979;52.116;5.286;2022-11-11T12:35:27;12.97;;;11.67;;
13816;SDS011;6979;52.116;5.286;2022-11-11T12:38:32;12.57;;;11.27;;
13816;SDS011;6979;52.116;5.286;2022-11-11T12:41:39;12.97;;;11.73;;
13816;SDS011;6979;52.116;5.286;2022-11-11T12:44:36;11.27;;;10.27;;
13816;SDS011;6979;52.116;5.286;2022-11-11T12:47:31;12.90;;;11.80;;
13816;SDS011;6979;52.116;5.286;2022-11-11T12:50:24;12.13;;;10.93;;
13816;SDS011;6979;52.116;5.286;2022-11-11T12:53:20;12.37;;;11.37;;
13816;SDS011;6979;52.116;5.286;2022-11-11T12:56:18;12.93;;;11.80;;
13816;SDS011;6979;52.116;5.286;2022-11-11T12:59:11;12.57;;;11.33;;
13816;SDS011;6979;52.116;5.286;2022-11-11T13:02:09;12.37;;;11.27;;
13816;SDS011;6979;52.116;5.286;2022-11-11T13:05:12;12.40;;;11.30;;
13816;SDS011;6979;52.116;5.286;2022-11-11T13:08:18;10.07;;;9.17;;
13816;SDS011;6979;52.116;5.286;2022-11-11T13:11:19;12.10;;;10.90;;
13816;SDS011;6979;52.116;5.286;2022-11-11T13:14:22;14.50;;;11.73;;
13816;SDS011;6979;52.116;5.286;2022-11-11T13:17:18;11.43;;;9.67;;
13816;SDS011;6979;52.116;5.286;2022-11-11T13:20:05;9.80;;;8.90;;
13816;SDS011;6979;52.116;5.286;2022-11-11T13:23:01;11.87;;;10.57;;
13816;SDS011;6979;52.116;5.286;2022-11-11T13:25:49;11.13;;;9.70;;
13816;SDS011;6979;52.116;5.286;2022-11-11T13:28:39;11.67;;;10.60;;
13816;SDS011;6979;52.116;5.286;2022-11-11T13:31:30;10.43;;;9.33;;
13816;SDS011;6979;52.116;5.286;2022-11-11T13:34:19;9.47;;;8.47;;
13816;SDS011;6979;52.116;5.286;2022-11-11T13:37:06;9.97;;;8.97;;
13816;SDS011;6979;52.116;5.286;2022-11-11T13:40:02;10.73;;;9.73;;
13816;SDS011;6979;52.116;5.286;2022-11-11T13:42:51;10.90;;;9.87;;
13816;SDS011;6979;52.116;5.286;2022-11-11T13:45:38;10.13;;;9.10;;
13816;SDS011;6979;52.116;5.286;2022-11-11T13:48:27;10.10;;;9.10;;
13816;SDS011;6979;52.116;5.286;2022-11-11T13:51:22;10.13;;;8.93;;
13816;SDS011;6979;52.116;5.286;2022-11-11T13:54:20;9.83;;;8.93;;
13816;SDS011;6979;52.116;5.286;2022-11-11T13:57:15;9.27;;;8.47;;
13816;SDS011;6979;52.116;5.286;2022-11-11T14:00:06;8.80;;;7.83;;
13816;SDS011;6979;52.116;5.286;2022-11-11T14:03:27;8.80;;;8.00;;
13816;SDS011;6979;52.116;5.286;2022-11-11T14:09:53;8.87;;;8.07;;
13816;SDS011;6979;52.116;5.286;2022-11-11T14:12:41;9.63;;;8.73;;
13816;SDS011;6979;52.116;5.286;2022-11-11T14:15:41;8.53;;;7.67;;
13816;SDS011;6979;52.116;5.286;2022-11-11T14:18:33;8.90;;;8.17;;
13816;SDS011;6979;52.116;5.286;2022-11-11T14:21:41;8.57;;;7.73;;
13816;SDS011;6979;52.116;5.286;2022-11-11T14:24:34;8.73;;;7.97;;
13816;SDS011;6979;52.116;5.286;2022-11-11T14:27:23;10.33;;;7.83;;
13816;SDS011;6979;52.116;5.286;2022-11-11T14:30:11;8.90;;;8.00;;
13816;SDS011;6979;52.116;5.286;2022-11-11T14:36:36;7.60;;;7.00;;
13816;SDS011;6979;52.116;5.286;2022-11-11T14:39:31;8.83;;;7.10;;
13816;SDS011;6979;52.116;5.286;2022-11-11T14:48:54;7.87;;;7.17;;
13816;SDS011;6979;52.116;5.286;2022-11-11T14:51:42;7.57;;;6.97;;
13816;SDS011;6979;52.116;5.286;2022-11-11T14:57:58;7.70;;;7.00;;
13816;SDS011;6979;52.116;5.286;2022-11-11T15:00:56;7.50;;;6.80;;
13816;SDS011;6979;52.116;5.286;2022-11-11T15:03:44;7.73;;;7.03;;
13816;SDS011;6979;52.116;5.286;2022-11-11T15:06:36;8.03;;;7.33;;
13816;SDS011;6979;52.116;5.286;2022-11-11T15:09:34;7.20;;;6.60;;
13816;SDS011;6979;52.116;5.286;2022-11-11T15:12:36;7.63;;;6.80;;
13816;SDS011;6979;52.116;5.286;2022-11-11T15:15:40;7.10;;;6.40;;
13816;SDS011;6979;52.116;5.286;2022-11-11T15:21:39;6.67;;;6.07;;
13816;SDS011;6979;52.116;5.286;2022-11-11T15:24:33;9.67;;;6.03;;
13816;SDS011;6979;52.116;5.286;2022-11-11T15:27:26;7.30;;;6.50;;
13816;SDS011;6979;52.116;5.286;2022-11-11T15:30:20;6.07;;;5.53;;
13816;SDS011;6979;52.116;5.286;2022-11-11T15:33:09;6.70;;;6.10;;
13816;SDS011;6979;52.116;5.286;2022-11-11T15:36:03;6.83;;;6.23;;
13816;SDS011;6979;52.116;5.286;2022-11-11T15:38:55;6.60;;;5.93;;
13816;SDS011;6979;52.116;5.286;2022-11-11T15:41:43;8.77;;;5.67;;
13816;SDS011;6979;52.116;5.286;2022-11-11T15:44:33;6.33;;;5.77;;
13816;SDS011;6979;52.116;5.286;2022-11-11T15:47:19;6.63;;;5.93;;
13816;SDS011;6979;52.116;5.286;2022-11-11T15:50:14;8.53;;;6.30;;
13816;SDS011;6979;52.116;5.286;2022-11-11T15:53:00;6.53;;;5.93;;
13816;SDS011;6979;52.116;5.286;2022-11-11T15:55:51;7.23;;;6.40;;
13816;SDS011;6979;52.116;5.286;2022-11-11T15:58:38;6.70;;;6.10;;
13816;SDS011;6979;52.116;5.286;2022-11-11T16:01:24;6.10;;;5.50;;
13816;SDS011;6979;52.116;5.286;2022-11-11T16:04:14;6.10;;;5.60;;
13816;SDS011;6979;52.116;5.286;2022-11-11T16:07:01;7.43;;;6.73;;
13816;SDS011;6979;52.116;5.286;2022-11-11T16:09:47;6.77;;;6.17;;
13816;SDS011;6979;52.116;5.286;2022-11-11T16:12:37;6.03;;;5.30;;
13816;SDS011;6979;52.116;5.286;2022-11-11T16:15:30;7.03;;;6.40;;
13816;SDS011;6979;52.116;5.286;2022-11-11T16:18:24;5.70;;;5.20;;
13816;SDS011;6979;52.116;5.286;2022-11-11T16:21:11;7.43;;;6.77;;
13816;SDS011;6979;52.116;5.286;2022-11-11T16:24:00;8.33;;;7.33;;
13816;SDS011;6979;52.116;5.286;2022-11-11T16:26:46;6.57;;;6.03;;
13816;SDS011;6979;52.116;5.286;2022-11-11T16:29:34;6.50;;;5.93;;
13816;SDS011;6979;52.116;5.286;2022-11-11T16:32:32;7.93;;;6.80;;
13816;SDS011;6979;52.116;5.286;2022-11-11T16:35:22;6.97;;;6.37;;
13816;SDS011;6979;52.116;5.286;2022-11-11T16:38:09;6.13;;;5.57;;
13816;SDS011;6979;52.116;5.286;2022-11-11T16:40:55;6.13;;;5.67;;
13816;SDS011;6979;52.116;5.286;2022-11-11T16:43:40;6.90;;;6.33;;
13816;SDS011;6979;52.116;5.286;2022-11-11T16:46:40;6.70;;;6.10;;
13816;SDS011;6979;52.116;5.286;2022-11-11T16:49:27;6.47;;;5.87;;
13816;SDS011;6979;52.116;5.286;2022-11-11T16:52:16;6.73;;;6.20;;
13816;SDS011;6979;52.116;5.286;2022-11-11T16:55:05;8.70;;;7.37;;
13816;SDS011;6979;52.116;5.286;2022-11-11T16:57:54;7.23;;;6.60;;
13816;SDS011;6979;52.116;5.286;2022-11-11T17:00:41;10.57;;;6.30;;
13816;SDS011;6979;52.116;5.286;2022-11-11T17:03:28;6.70;;;6.17;;
13816;SDS011;6979;52.116;5.286;2022-11-11T17:06:14;7.37;;;6.67;;
13816;SDS011;6979;52.116;5.286;2022-11-11T17:08:59;9.83;;;7.70;;
13816;SDS011;6979;52.116;5.286;2022-11-11T17:11:45;9.03;;;7.67;;
13816;SDS011;6979;52.116;5.286;2022-11-11T17:14:31;7.27;;;6.57;;
13816;SDS011;6979;52.116;5.286;2022-11-11T17:17:18;7.00;;;6.40;;
13816;SDS011;6979;52.116;5.286;2022-11-11T17:20:06;6.10;;;5.50;;
13816;SDS011;6979;52.116;5.286;2022-11-11T17:22:54;5.83;;;5.20;;
13816;SDS011;6979;52.116;5.286;2022-11-11T17:25:41;5.83;;;5.27;;